CLD3 weather

Burns Lake (LD Air) Water Aerodrome
Burns Lake, British Columbia, Canada

Public forecast

Using degrees Celsius for public forecast. Weather courtesy of forecast.io.

Closest aviation weather report (METAR) to Burns Lake (LD Air) Water Aerodrome

Closest report is Smithers Airport, 61.9 nm (114.6 km) NW. Retrieved 2020/07/04 21:00 UTC (20 minutes ago):

CYYD 042100Z 33005KT 300V030 20SM FEW015 SCT026 BKN050 16/10 A3009 RMK SF1SC2SC4 SLP195 DENSITY ALT 2100FT

Closest aviation forecast (TAF) to Burns Lake (LD Air) Water Aerodrome

Closest forecast is Smithers Airport, 61.9 nm (114.6 km) NW. Retrieved 2020/07/04 19:00 UTC (2 hours ago):

TAF CYYD 041838Z 0419/0506 VRB03KT P6SM SCT012 OVC040 TEMPO 0419/0422 P6SM -RA BKN012 OVC040 FM042200 33010KT P6SM SCT012 BKN040 TEMPO 0422/0506 P6SM VCSH RMK NXT FCST BY 050100Z